createdAt,value
2024-02-17T00:01:18.820Z,102280.88
2024-02-17T00:03:47.486Z,102279.97
2024-02-17T00:06:16.136Z,102288.41
2024-02-17T00:08:44.656Z,102285.66
2024-02-17T00:11:13.356Z,102289.97
2024-02-17T00:13:44.040Z,102297.72
2024-02-17T00:16:12.609Z,102297.56
2024-02-17T00:18:41.306Z,102299.72
2024-02-17T00:21:09.884Z,102296.69
2024-02-17T00:23:38.397Z,102303.34
2024-02-17T00:26:06.920Z,102300.63
2024-02-17T00:28:35.436Z,102289.56
2024-02-17T00:31:04.019Z,102302.03
2024-02-17T00:33:32.575Z,102304.03
2024-02-17T00:36:01.153Z,102307.97
2024-02-17T00:38:29.683Z,102312.72
2024-02-17T00:40:58.228Z,102312.72
2024-02-17T00:43:26.658Z,102317.16
2024-02-17T00:45:55.317Z,102314.69
2024-02-17T00:48:24.640Z,102323.09
2024-02-17T00:50:58.139Z,102330.75
2024-02-17T00:53:33.556Z,102321.34
2024-02-17T00:56:02.034Z,102327.25
2024-02-17T00:58:30.575Z,102333.88
2024-02-17T01:00:59.171Z,102331.78
2024-02-17T01:03:27.876Z,102333.53
2024-02-17T01:05:56.650Z,102332.19
2024-02-17T01:08:25.237Z,102334.91
2024-02-17T01:10:53.809Z,102342.22
2024-02-17T01:13:22.531Z,102341.84
2024-02-17T01:15:51.175Z,102335.47
2024-02-17T01:18:19.889Z,102331.91
2024-02-17T01:20:48.510Z,102336.81
2024-02-17T01:23:16.984Z,102336.13
2024-02-17T01:25:45.535Z,102346.84
2024-02-17T01:28:14.074Z,102351.03
2024-02-17T01:30:42.833Z,102348.84
2024-02-17T01:33:11.411Z,102345.56
2024-02-17T01:35:39.969Z,102347.97
2024-02-17T01:38:09.463Z,102346.06
2024-02-17T01:40:38.484Z,102353.94
2024-02-17T01:43:09.912Z,102354.81
2024-02-17T01:45:38.533Z,102355.22
2024-02-17T01:48:07.633Z,102363.06
2024-02-17T01:50:36.271Z,102354.81
2024-02-17T01:53:05.354Z,102369.00
2024-02-17T01:55:34.171Z,102361.81
2024-02-17T01:58:03.025Z,102369.00
2024-02-17T02:00:32.745Z,102367.13
2024-02-17T02:03:01.756Z,102371.66
2024-02-17T02:05:30.417Z,102369.00
2024-02-17T02:07:58.952Z,102378.06
2024-02-17T02:10:27.466Z,102382.13
2024-02-17T02:12:56.128Z,102382.16
2024-02-17T02:15:29.960Z,102392.75
2024-02-17T02:18:05.987Z,102392.66
2024-02-17T02:20:37.912Z,102393.56
2024-02-17T02:23:06.568Z,102398.94
2024-02-17T02:25:35.162Z,102407.88
2024-02-17T02:28:03.943Z,102405.53
2024-02-17T02:30:33.413Z,102410.38
2024-02-17T02:33:02.107Z,102412.06
2024-02-17T02:35:30.720Z,102414.28
2024-02-17T02:37:59.198Z,102411.66
2024-02-17T02:40:27.742Z,102416.03
2024-02-17T02:42:57.803Z,102422.03
2024-02-17T02:45:26.585Z,102430.75
2024-02-17T02:47:55.292Z,102427.16
2024-02-17T02:50:23.869Z,102436.81
2024-02-17T02:52:52.510Z,102440.91
2024-02-17T02:55:20.995Z,102440.59
2024-02-17T02:57:49.661Z,102444.50
2024-02-17T03:00:18.954Z,102445.72
2024-02-17T03:02:47.628Z,102442.16
2024-02-17T03:05:16.138Z,102435.00
2024-02-17T03:07:44.788Z,102444.34
2024-02-17T03:10:13.475Z,102442.56
2024-02-17T03:12:42.008Z,102441.97
2024-02-17T03:15:10.791Z,102452.88
2024-02-17T03:17:39.300Z,102461.38
2024-02-17T03:20:08.473Z,102456.84
2024-02-17T03:22:37.145Z,102459.84
2024-02-17T03:25:06.063Z,102459.69
2024-02-17T03:27:35.837Z,102466.19
2024-02-17T03:30:06.301Z,102475.56
2024-02-17T03:32:35.401Z,102478.22
2024-02-17T03:35:07.741Z,102471.41
2024-02-17T03:37:36.326Z,102478.53
2024-02-17T03:40:10.065Z,102478.03
2024-02-17T03:42:38.681Z,102483.72
2024-02-17T03:45:07.614Z,102483.75
2024-02-17T03:47:36.122Z,102488.09
2024-02-17T03:50:05.207Z,102487.81
2024-02-17T03:52:34.321Z,102483.88
2024-02-17T03:55:02.942Z,102494.06
2024-02-17T03:57:31.570Z,102492.00
2024-02-17T04:00:00.352Z,102493.28
2024-02-17T04:02:28.817Z,102505.44
2024-02-17T04:04:57.277Z,102500.19
2024-02-17T04:07:25.984Z,102506.94
2024-02-17T04:09:54.709Z,102503.25
2024-02-17T04:12:23.404Z,102508.19
2024-02-17T04:14:52.507Z,102517.44
2024-02-17T04:17:21.087Z,102516.66
2024-02-17T04:19:49.813Z,102528.13
2024-02-17T04:22:18.539Z,102529.00
2024-02-17T04:24:47.229Z,102529.47
2024-02-17T04:27:15.968Z,102534.25
2024-02-17T04:29:44.564Z,102538.41
2024-02-17T04:32:13.034Z,102541.00
2024-02-17T04:34:41.769Z,102536.88
2024-02-17T04:37:10.525Z,102544.06
2024-02-17T04:39:39.093Z,102550.75
2024-02-17T04:42:07.710Z,102548.13
2024-02-17T04:44:36.737Z,102553.84
2024-02-17T04:47:05.249Z,102554.44
2024-02-17T04:49:35.326Z,102548.09
2024-02-17T04:52:04.030Z,102554.97
2024-02-17T04:54:32.614Z,102553.41
2024-02-17T04:57:01.086Z,102565.75
2024-02-17T04:59:30.240Z,102569.06
2024-02-17T05:01:58.797Z,102575.34
2024-02-17T05:04:27.420Z,102577.91
2024-02-17T05:06:56.622Z,102583.00
2024-02-17T05:09:26.288Z,102590.09
2024-02-17T05:11:56.794Z,102587.50
2024-02-17T05:14:26.413Z,102588.19
2024-02-17T05:16:54.863Z,102596.41
2024-02-17T05:19:23.750Z,102598.75
2024-02-17T05:21:53.372Z,102598.97
2024-02-17T05:24:21.925Z,102597.75
2024-02-17T05:26:50.762Z,102603.94
2024-02-17T05:29:19.430Z,102604.41
2024-02-17T05:31:47.865Z,102609.09
2024-02-17T05:34:18.564Z,102624.31
2024-02-17T05:36:47.193Z,102629.22
2024-02-17T05:39:15.747Z,102625.94
2024-02-17T05:41:44.427Z,102628.66
2024-02-17T05:44:12.885Z,102622.25
2024-02-17T05:46:41.317Z,102634.41
2024-02-17T05:49:10.679Z,102647.91
2024-02-17T05:51:39.212Z,102639.94
2024-02-17T05:54:08.857Z,102647.84
2024-02-17T05:56:37.368Z,102641.53
2024-02-17T05:59:05.791Z,102644.28
2024-02-17T06:01:34.413Z,102640.94
2024-02-17T06:04:03.039Z,102645.25
2024-02-17T06:06:31.698Z,102653.06
2024-02-17T06:09:00.189Z,102656.06
2024-02-17T06:11:28.796Z,102656.88
2024-02-17T06:13:58.249Z,102661.75
2024-02-17T06:16:30.363Z,102655.28
2024-02-17T06:19:17.629Z,102666.28
2024-02-17T06:21:46.324Z,102666.38
2024-02-17T06:24:14.927Z,102671.63
2024-02-17T06:26:44.286Z,102676.72
2024-02-17T06:29:12.879Z,102678.69
2024-02-17T06:31:43.352Z,102680.75
2024-02-17T06:34:13.183Z,102683.19
2024-02-17T06:36:44.107Z,102679.53
2024-02-17T06:39:13.439Z,102686.38
2024-02-17T06:41:41.973Z,102691.19
2024-02-17T06:44:10.516Z,102700.41
2024-02-17T06:46:39.625Z,102693.44
2024-02-17T06:49:08.289Z,102693.91
2024-02-17T06:51:37.837Z,102703.06
2024-02-17T06:54:06.476Z,102705.66
2024-02-17T06:56:35.054Z,102698.19
2024-02-17T06:59:03.529Z,102705.03
2024-02-17T07:01:32.089Z,102708.41
2024-02-17T07:04:01.048Z,102723.06
2024-02-17T07:06:29.857Z,102724.19
2024-02-17T07:08:58.512Z,102732.56
2024-02-17T07:11:27.041Z,102730.94
2024-02-17T07:13:55.649Z,102735.84
2024-02-17T07:16:24.148Z,102731.41
2024-02-17T07:18:52.782Z,102738.59
2024-02-17T07:21:21.537Z,102745.31
2024-02-17T07:23:50.056Z,102755.63
2024-02-17T07:26:18.639Z,102766.63
2024-02-17T07:28:48.558Z,102773.47
2024-02-17T07:31:18.132Z,102777.25
2024-02-17T07:33:48.167Z,102780.63
2024-02-17T07:36:17.021Z,102780.63
2024-02-17T07:38:45.613Z,102800.13
2024-02-17T07:41:14.563Z,102790.31
2024-02-17T07:43:42.989Z,102794.00
2024-02-17T07:46:11.525Z,102797.03
2024-02-17T07:48:40.066Z,102804.78
2024-02-17T07:51:08.838Z,102817.72
2024-02-17T07:53:38.349Z,102811.75
2024-02-17T07:56:09.278Z,102810.44
2024-02-17T07:58:38.134Z,102825.41
2024-02-17T08:01:06.716Z,102828.44
2024-02-17T08:03:35.414Z,102831.88
2024-02-17T08:06:04.201Z,102840.13
2024-02-17T08:08:33.661Z,102839.69
2024-02-17T08:11:02.165Z,102842.84
2024-02-17T08:13:31.463Z,102849.47
2024-02-17T08:16:00.009Z,102854.56
2024-02-17T08:18:28.642Z,102847.19
2024-02-17T08:21:02.392Z,102854.66
2024-02-17T08:23:30.868Z,102852.47
2024-02-17T08:26:04.694Z,102850.06
2024-02-17T08:28:33.700Z,102856.72
2024-02-17T08:31:02.209Z,102861.69
2024-02-17T08:33:31.288Z,102867.88
2024-02-17T08:36:00.177Z,102874.16
2024-02-17T08:38:28.737Z,102880.00
2024-02-17T08:40:57.334Z,102880.44
2024-02-17T08:43:25.792Z,102881.09
2024-02-17T08:45:54.325Z,102878.44
2024-02-17T08:48:23.541Z,102889.00
2024-02-17T08:50:52.745Z,102890.09
2024-02-17T08:53:21.384Z,102892.22
2024-02-17T08:55:49.866Z,102896.16
2024-02-17T08:58:18.301Z,102895.34
2024-02-17T09:00:47.086Z,102888.03
2024-02-17T09:03:15.609Z,102902.75
2024-02-17T09:05:45.440Z,102904.06
2024-02-17T09:08:13.964Z,102906.09
2024-02-17T09:10:42.541Z,102907.72
2024-02-17T09:13:10.997Z,102910.38
2024-02-17T09:15:39.569Z,102919.06
2024-02-17T09:18:08.162Z,102912.00
2024-02-17T09:20:36.764Z,102927.44
2024-02-17T09:23:06.971Z,102921.13
2024-02-17T09:25:36.094Z,102922.44
2024-02-17T09:28:05.146Z,102929.75
2024-02-17T09:30:35.588Z,102925.44
2024-02-17T09:33:04.562Z,102933.69
2024-02-17T09:35:33.102Z,102928.72
2024-02-17T09:38:01.937Z,102937.28
2024-02-17T09:40:30.526Z,102945.97
2024-02-17T09:42:59.097Z,102947.50
2024-02-17T09:45:28.231Z,102954.34
2024-02-17T09:47:59.708Z,102952.91
2024-02-17T09:50:29.352Z,102954.38
2024-02-17T09:53:02.242Z,102957.75
2024-02-17T09:55:32.157Z,102954.72
2024-02-17T09:58:00.810Z,102959.84
2024-02-17T10:00:29.828Z,102962.19
2024-02-17T10:03:01.093Z,102952.09
2024-02-17T10:05:30.126Z,102954.81
2024-02-17T10:07:58.817Z,102956.16
2024-02-17T10:10:27.326Z,102960.38
2024-02-17T10:13:02.458Z,102953.69
2024-02-17T10:15:33.433Z,102953.69
2024-02-17T10:18:02.182Z,102955.59
2024-02-17T10:20:32.485Z,102950.28
2024-02-17T10:23:01.146Z,102956.81
2024-02-17T10:25:29.985Z,102960.50
2024-02-17T10:27:58.896Z,102969.59
2024-02-17T10:30:28.363Z,102954.09
2024-02-17T10:32:58.414Z,102963.75
2024-02-17T10:35:27.302Z,102962.09
2024-02-17T10:37:57.922Z,102961.75
2024-02-17T10:40:27.466Z,102963.47
2024-02-17T10:42:56.047Z,102972.78
2024-02-17T10:45:24.695Z,102964.34
2024-02-17T10:48:02.549Z,102966.34
2024-02-17T10:50:33.661Z,102972.69
2024-02-17T10:53:08.799Z,102970.25
2024-02-17T10:55:40.087Z,102980.16
2024-02-17T10:58:15.575Z,102993.53
2024-02-17T11:00:50.898Z,102993.28
2024-02-17T11:03:29.622Z,102992.69
2024-02-17T11:06:06.772Z,102993.75
2024-02-17T11:08:35.981Z,103002.28
2024-02-17T11:11:23.921Z,103004.72
2024-02-17T11:13:53.974Z,103010.25
2024-02-17T11:16:24.803Z,103020.13
2024-02-17T11:18:57.051Z,103025.75
2024-02-17T11:21:32.223Z,103026.75
2024-02-17T11:24:01.391Z,103023.91
2024-02-17T11:26:37.476Z,103021.41
2024-02-17T11:29:32.602Z,103024.88
2024-02-17T11:32:04.398Z,103038.59
2024-02-17T11:34:34.650Z,103030.84
2024-02-17T11:37:06.369Z,103029.38
2024-02-17T11:39:35.358Z,103030.84
2024-02-17T11:42:05.959Z,103034.16
2024-02-17T11:44:34.776Z,103036.53
2024-02-17T11:47:03.409Z,103038.47
2024-02-17T11:49:38.306Z,103038.41
2024-02-17T11:52:08.325Z,103033.19
2024-02-17T11:54:38.460Z,103038.66
2024-02-17T11:57:07.970Z,103045.34
2024-02-17T11:59:36.760Z,103043.50
2024-02-17T12:02:07.318Z,103041.63
2024-02-17T12:04:39.266Z,103051.75
2024-02-17T12:07:08.029Z,103053.16
2024-02-17T12:09:37.816Z,103049.94
2024-02-17T12:12:07.431Z,103054.25
2024-02-17T12:14:35.898Z,103058.28
2024-02-17T12:17:04.807Z,103047.34
2024-02-17T12:19:35.012Z,103047.00
2024-02-17T12:22:04.087Z,103050.44
2024-02-17T12:24:33.328Z,103057.81
2024-02-17T12:27:03.253Z,103064.19
2024-02-17T12:29:31.855Z,103052.09
2024-02-17T12:32:02.198Z,103068.16
2024-02-17T12:34:33.442Z,103058.75
2024-02-17T12:37:05.612Z,103067.13
2024-02-17T12:39:34.544Z,103059.06
2024-02-17T12:42:04.906Z,103064.94
2024-02-17T12:44:33.695Z,103055.00
2024-02-17T12:47:13.618Z,103068.53
2024-02-17T12:49:43.231Z,103063.88
2024-02-17T12:52:13.261Z,103058.19
2024-02-17T12:54:41.926Z,103069.28
2024-02-17T12:57:10.607Z,103067.19
2024-02-17T12:59:40.917Z,103069.28
2024-02-17T13:02:09.493Z,103068.06
2024-02-17T13:04:38.078Z,103065.31
2024-02-17T13:07:06.654Z,103068.16
2024-02-17T13:09:36.050Z,103067.06
2024-02-17T13:12:05.119Z,103059.00
2024-02-17T13:14:34.390Z,103055.75
2024-02-17T13:17:05.594Z,103055.38
2024-02-17T13:19:34.688Z,103061.09
2024-02-17T13:22:03.423Z,103071.91
2024-02-17T13:24:32.146Z,103064.56
2024-02-17T13:27:00.764Z,103058.50
2024-02-17T13:29:29.482Z,103058.63
2024-02-17T13:31:57.926Z,103064.47
2024-02-17T13:34:26.932Z,103066.34
2024-02-17T13:36:55.586Z,103054.44
2024-02-17T13:39:24.270Z,103062.69
2024-02-17T13:41:52.743Z,103046.66
2024-02-17T13:44:21.317Z,103058.25
2024-02-17T13:46:50.157Z,103051.72
2024-02-17T13:49:18.690Z,103061.81
2024-02-17T13:51:47.500Z,103058.63
2024-02-17T13:54:16.173Z,103056.03
2024-02-17T13:56:44.627Z,103056.03
2024-02-17T13:59:13.023Z,103056.91
2024-02-17T14:01:41.555Z,103061.81
2024-02-17T14:04:10.474Z,103065.22
2024-02-17T14:06:39.007Z,103064.34
2024-02-17T14:09:07.749Z,103057.44
2024-02-17T14:11:36.395Z,103068.47
2024-02-17T14:14:04.911Z,103067.13
2024-02-17T14:16:33.337Z,103068.38
2024-02-17T14:19:03.217Z,103064.94
2024-02-17T14:21:32.013Z,103061.84
2024-02-17T14:24:01.165Z,103073.63
2024-02-17T14:26:29.608Z,103073.97
2024-02-17T14:28:58.437Z,103080.09
2024-02-17T14:31:28.940Z,103083.13
2024-02-17T14:33:57.603Z,103078.94
2024-02-17T14:36:26.290Z,103077.44
2024-02-17T14:38:57.100Z,103076.81
2024-02-17T14:41:25.643Z,103080.09
2024-02-17T14:43:54.084Z,103076.09
2024-02-17T14:46:22.564Z,103075.63
2024-02-17T14:48:51.390Z,103080.78
2024-02-17T14:51:20.064Z,103080.66
2024-02-17T14:53:48.901Z,103085.13
2024-02-17T14:56:17.439Z,103087.94
2024-02-17T14:58:45.842Z,103092.09
2024-02-17T15:01:18.453Z,103085.06
2024-02-17T15:03:50.043Z,103091.25
2024-02-17T15:06:18.922Z,103087.31
2024-02-17T15:08:47.533Z,103089.53
2024-02-17T15:11:18.857Z,103087.97
2024-02-17T15:13:49.084Z,103085.94
2024-02-17T15:16:18.189Z,103081.97
2024-02-17T15:18:46.893Z,103079.25
2024-02-17T15:21:15.560Z,103088.03
2024-02-17T15:23:47.131Z,103097.28
2024-02-17T15:26:17.340Z,103093.16
2024-02-17T15:28:45.966Z,103087.72
2024-02-17T15:31:14.950Z,103095.53
2024-02-17T15:33:43.623Z,103092.78
2024-02-17T15:36:12.894Z,103098.06
2024-02-17T15:38:41.452Z,103103.13
2024-02-17T15:41:09.958Z,103104.69
2024-02-17T15:43:38.453Z,103100.66
2024-02-17T15:46:08.077Z,103091.03
2024-02-17T15:48:38.199Z,103097.41
2024-02-17T15:51:07.453Z,103099.53
2024-02-17T15:53:36.863Z,103100.66
2024-02-17T15:56:12.863Z,103096.41
2024-02-17T15:58:41.778Z,103105.00
2024-02-17T16:01:10.464Z,103101.00
2024-02-17T16:03:39.535Z,103099.13
2024-02-17T16:06:08.486Z,103103.53
2024-02-17T16:08:39.003Z,103097.72
2024-02-17T16:11:13.187Z,103095.25
2024-02-17T16:13:45.740Z,103098.66
2024-02-17T16:16:16.507Z,103100.66
2024-02-17T16:18:46.836Z,103096.84
2024-02-17T16:21:16.051Z,103099.59
2024-02-17T16:23:45.362Z,103094.69
2024-02-17T16:26:14.014Z,103087.47
2024-02-17T16:28:43.555Z,103088.41
2024-02-17T16:31:12.133Z,103090.31
2024-02-17T16:33:40.785Z,103102.66
2024-02-17T16:36:09.379Z,103112.75
2024-02-17T16:38:37.965Z,103109.63
2024-02-17T16:41:06.446Z,103102.53
2024-02-17T16:43:34.979Z,103105.75
2024-02-17T16:46:04.602Z,103095.09
2024-02-17T16:48:33.301Z,103094.75
2024-02-17T16:51:02.633Z,103096.59
2024-02-17T16:53:31.189Z,103094.25
2024-02-17T16:55:59.654Z,103089.63
2024-02-17T16:58:28.220Z,103095.75
2024-02-17T17:00:57.166Z,103093.22
2024-02-17T17:03:25.758Z,103093.56
2024-02-17T17:05:54.224Z,103096.59
2024-02-17T17:08:22.772Z,103085.47
2024-02-17T17:10:51.903Z,103085.09
2024-02-17T17:13:20.839Z,103088.03
2024-02-17T17:15:49.909Z,103088.47
2024-02-17T17:18:18.682Z,103088.94
2024-02-17T17:20:47.576Z,103090.41
2024-02-17T17:23:16.146Z,103085.09
2024-02-17T17:25:46.089Z,103083.84
2024-02-17T17:28:14.868Z,103083.84
2024-02-17T17:30:43.546Z,103077.81
2024-02-17T17:33:12.213Z,103089.75
2024-02-17T17:35:40.855Z,103096.28
2024-02-17T17:38:09.359Z,103088.38
2024-02-17T17:40:37.795Z,103105.41
2024-02-17T17:43:07.530Z,103096.53
2024-02-17T17:45:38.251Z,103104.88
2024-02-17T17:48:07.541Z,103108.31
2024-02-17T17:50:36.111Z,103109.72
2024-02-17T17:53:10.688Z,103108.31
2024-02-17T17:55:39.420Z,103106.34
2024-02-17T17:58:07.959Z,103118.78
2024-02-17T18:00:36.496Z,103110.94
2024-02-17T18:03:05.017Z,103113.31
2024-02-17T18:05:33.805Z,103119.91
2024-02-17T18:08:02.308Z,103107.63
2024-02-17T18:10:32.851Z,103111.81
2024-02-17T18:13:02.849Z,103109.72
2024-02-17T18:15:31.394Z,103116.50
2024-02-17T18:18:00.401Z,103110.84
2024-02-17T18:20:29.403Z,103109.72
2024-02-17T18:22:57.865Z,103115.66
2024-02-17T18:25:26.405Z,103110.75
2024-02-17T18:27:55.001Z,103109.69
2024-02-17T18:30:23.664Z,103110.69
2024-02-17T18:32:52.414Z,103111.91
2024-02-17T18:35:20.982Z,103108.59
2024-02-17T18:37:49.513Z,103110.66
2024-02-17T18:40:18.078Z,103110.25
2024-02-17T18:42:46.524Z,103118.53
2024-02-17T18:45:15.210Z,103110.63
2024-02-17T18:47:43.780Z,103110.03
2024-02-17T18:50:12.454Z,103114.66
2024-02-17T18:52:41.102Z,103109.84
2024-02-17T18:55:10.842Z,103124.59
2024-02-17T18:57:39.952Z,103116.28
2024-02-17T19:00:09.283Z,103119.50
2024-02-17T19:02:37.777Z,103110.84
2024-02-17T19:05:06.963Z,103115.59
2024-02-17T19:07:35.471Z,103123.03
2024-02-17T19:10:04.655Z,103123.03
2024-02-17T19:12:33.242Z,103110.47
2024-02-17T19:15:02.752Z,103115.56
2024-02-17T19:17:31.267Z,103111.16
2024-02-17T19:19:59.921Z,103121.00
2024-02-17T19:22:28.762Z,103115.31
2024-02-17T19:24:57.852Z,103119.47
2024-02-17T19:27:26.554Z,103113.38
2024-02-17T19:29:55.523Z,103118.66
2024-02-17T19:32:23.971Z,103132.97
2024-02-17T19:34:52.580Z,103121.47
2024-02-17T19:37:21.079Z,103112.00
2024-02-17T19:39:49.550Z,103109.19
2024-02-17T19:42:18.149Z,103119.69
2024-02-17T19:44:46.782Z,103121.66
2024-02-17T19:47:16.832Z,103121.84
2024-02-17T19:49:45.353Z,103121.31
2024-02-17T19:52:13.795Z,103121.72
2024-02-17T19:54:43.082Z,103120.75
2024-02-17T19:57:11.607Z,103130.81
2024-02-17T19:59:40.141Z,103124.28
2024-02-17T20:02:08.643Z,103126.63
2024-02-17T20:04:38.809Z,103117.06
2024-02-17T20:07:07.672Z,103126.53
2024-02-17T20:09:36.908Z,103124.00
2024-02-17T20:12:06.684Z,103142.19
2024-02-17T20:14:35.644Z,103141.41
2024-02-17T20:17:05.060Z,103145.25
2024-02-17T20:19:33.689Z,103135.97
2024-02-17T20:22:04.214Z,103144.88
2024-02-17T20:24:32.805Z,103149.47
2024-02-17T20:27:01.315Z,103153.88
2024-02-17T20:29:34.774Z,103145.88
2024-02-17T20:32:03.560Z,103143.56
2024-02-17T20:34:32.249Z,103140.59
2024-02-17T20:37:02.385Z,103141.06
2024-02-17T20:39:32.087Z,103138.78
2024-02-17T20:42:03.531Z,103127.53
2024-02-17T20:44:36.122Z,103129.97
2024-02-17T20:47:08.735Z,103129.47
2024-02-17T20:49:37.408Z,103131.69
2024-02-17T20:52:06.455Z,103130.84
2024-02-17T20:54:34.987Z,103131.25
2024-02-17T20:57:03.965Z,103124.84
2024-02-17T20:59:32.391Z,103129.19
2024-02-17T21:02:00.886Z,103136.16
2024-02-17T21:04:31.151Z,103123.56
2024-02-17T21:06:59.831Z,103120.88
2024-02-17T21:09:29.247Z,103116.28
2024-02-17T21:11:58.173Z,103120.28
2024-02-17T21:14:26.603Z,103114.63
2024-02-17T21:16:55.003Z,103114.81
2024-02-17T21:19:25.222Z,103113.69
2024-02-17T21:21:54.032Z,103109.78
2024-02-17T21:24:22.584Z,103105.16
2024-02-17T21:26:51.108Z,103103.88
2024-02-17T21:29:19.550Z,103101.38
2024-02-17T21:31:48.266Z,103104.56
2024-02-17T21:34:17.145Z,103105.03
2024-02-17T21:36:45.850Z,103104.56
2024-02-17T21:39:19.382Z,103100.78
2024-02-17T21:41:48.155Z,103097.06
2024-02-17T21:44:17.077Z,103088.41
2024-02-17T21:46:46.007Z,103096.25
2024-02-17T21:49:14.541Z,103085.81
2024-02-17T21:51:43.182Z,103082.75
2024-02-17T21:54:11.925Z,103088.59
2024-02-17T21:56:40.547Z,103093.13
2024-02-17T21:59:09.483Z,103092.03
2024-02-17T22:01:38.462Z,103076.97
2024-02-17T22:04:07.355Z,103081.72
2024-02-17T22:06:35.946Z,103077.59
2024-02-17T22:09:05.550Z,103084.06
2024-02-17T22:11:34.053Z,103074.75
2024-02-17T22:14:02.598Z,103078.44
2024-02-17T22:16:31.102Z,103080.25
2024-02-17T22:18:59.585Z,103084.19
2024-02-17T22:21:29.137Z,103082.09
2024-02-17T22:23:57.776Z,103084.09
2024-02-17T22:26:26.420Z,103075.81
2024-02-17T22:28:54.840Z,103079.69
2024-02-17T22:31:29.248Z,103076.75
2024-02-17T22:33:57.855Z,103075.25
2024-02-17T22:36:26.515Z,103069.56
2024-02-17T22:38:55.377Z,103073.09
2024-02-17T22:41:24.273Z,103065.75
2024-02-17T22:43:52.769Z,103066.16
2024-02-17T22:46:21.494Z,103068.19
2024-02-17T22:48:50.011Z,103063.06
2024-02-17T22:51:19.138Z,103073.53
2024-02-17T22:53:47.723Z,103066.34
2024-02-17T22:56:17.210Z,103068.06
2024-02-17T22:58:46.074Z,103071.09
2024-02-17T23:01:15.107Z,103068.06
2024-02-17T23:03:50.083Z,103068.19
2024-02-17T23:06:18.755Z,103059.19
2024-02-17T23:08:49.310Z,103066.56
2024-02-17T23:11:17.950Z,103064.91
2024-02-17T23:13:46.501Z,103063.00
2024-02-17T23:16:15.094Z,103063.00
2024-02-17T23:18:43.774Z,103059.44
2024-02-17T23:21:12.422Z,103050.81
2024-02-17T23:23:40.899Z,103048.94
2024-02-17T23:26:09.417Z,103046.41
2024-02-17T23:28:37.869Z,103045.88
2024-02-17T23:31:06.531Z,103036.16
2024-02-17T23:33:35.236Z,103031.78
2024-02-17T23:36:04.046Z,103037.38
2024-02-17T23:38:32.466Z,103037.81
2024-02-17T23:41:02.268Z,103035.38
2024-02-17T23:43:30.757Z,103042.34
2024-02-17T23:45:59.287Z,103029.50
2024-02-17T23:48:27.820Z,103034.38
2024-02-17T23:50:56.381Z,103029.31
2024-02-17T23:53:24.836Z,103027.69
2024-02-17T23:55:53.458Z,103028.97
2024-02-17T23:58:22.602Z,103020.13
